Saginaw, Pennsylvania
Current Conditions -  °F | °C
As of 6:56 PM on Wednesday 22 Oct 2014 (Local Time) from KMDT Reporting Station
Overcast Overcast  
Wind Chill: 53°   Ceiling: 2600
Heat Index: 53°   Visibility: 10mi
Dew Point: 43°   Wind: 16mph
Humidity: 69%   Direction: 340°NNW
Pressure: 29.97"   Gusts: 30mph
Location:  40.0548°N, 76.6874°W
Report Text: KMDT 222256Z 34014G26KT 10SM OVC026 12/06 A2997 RMK AO2 PK WND 34030/2232 SLP148 T01170061
Loading
Personal Weather Stations






























Interactive Weather Map
Tropical Storm Tracking
New forecast layout! Learn more

10-Day Weather Forecast

Advertisements
Track Severe Weather on mobile